sensor_id;sensor_type;location;lat;lon;timestamp;P1;durP1;ratioP1;P2;durP2;ratioP2
63114;SDS011;49208;50.874;6.466;2024-03-02T07:02:30;2.72;;;1.00;;
63114;SDS011;49208;50.874;6.466;2024-03-02T07:04:55;2.28;;;0.82;;
63114;SDS011;49208;50.874;6.466;2024-03-02T07:07:21;1.73;;;0.88;;
63114;SDS011;49208;50.874;6.466;2024-03-02T07:09:46;2.25;;;1.05;;
63114;SDS011;49208;50.874;6.466;2024-03-02T07:12:12;2.38;;;0.90;;
63114;SDS011;49208;50.874;6.466;2024-03-02T07:14:38;1.95;;;0.80;;
63114;SDS011;49208;50.874;6.466;2024-03-02T07:17:21;2.60;;;1.08;;
63114;SDS011;49208;50.874;6.466;2024-03-02T07:19:47;2.50;;;0.90;;
63114;SDS011;49208;50.874;6.466;2024-03-02T07:22:12;3.67;;;1.58;;
63114;SDS011;49208;50.874;6.466;2024-03-02T07:24:41;2.80;;;1.00;;
63114;SDS011;49208;50.874;6.466;2024-03-02T07:27:07;2.53;;;1.08;;
63114;SDS011;49208;50.874;6.466;2024-03-02T07:29:34;2.17;;;1.00;;
63114;SDS011;49208;50.874;6.466;2024-03-02T07:31:59;2.40;;;1.10;;
63114;SDS011;49208;50.874;6.466;2024-03-02T07:34:25;3.15;;;1.40;;
63114;SDS011;49208;50.874;6.466;2024-03-02T07:36:51;2.50;;;1.00;;
63114;SDS011;49208;50.874;6.466;2024-03-02T07:39:16;3.72;;;1.58;;
63114;SDS011;49208;50.874;6.466;2024-03-02T07:41:42;2.45;;;1.08;;
63114;SDS011;49208;50.874;6.466;2024-03-02T07:44:07;3.50;;;1.58;;
63114;SDS011;49208;50.874;6.466;2024-03-02T07:46:32;2.67;;;1.30;;
63114;SDS011;49208;50.874;6.466;2024-03-02T07:48:58;4.32;;;1.30;;
63114;SDS011;49208;50.874;6.466;2024-03-02T07:51:24;3.63;;;1.38;;
63114;SDS011;49208;50.874;6.466;2024-03-02T07:53:49;4.05;;;1.27;;
63114;SDS011;49208;50.874;6.466;2024-03-02T07:56:14;3.65;;;1.20;;
63114;SDS011;49208;50.874;6.466;2024-03-02T07:58:46;2.22;;;0.93;;
63114;SDS011;49208;50.874;6.466;2024-03-02T08:01:13;2.77;;;1.30;;
63114;SDS011;49208;50.874;6.466;2024-03-02T08:03:38;5.10;;;1.58;;
63114;SDS011;49208;50.874;6.466;2024-03-02T08:06:04;2.20;;;0.93;;
63114;SDS011;49208;50.874;6.466;2024-03-02T08:08:29;2.15;;;1.10;;
63114;SDS011;49208;50.874;6.466;2024-03-02T08:10:55;3.08;;;1.42;;
63114;SDS011;49208;50.874;6.466;2024-03-02T08:13:20;3.15;;;1.08;;
63114;SDS011;49208;50.874;6.466;2024-03-02T08:15:45;3.15;;;1.20;;
63114;SDS011;49208;50.874;6.466;2024-03-02T08:18:11;2.00;;;1.02;;
63114;SDS011;49208;50.874;6.466;2024-03-02T08:20:37;6.25;;;1.42;;
63114;SDS011;49208;50.874;6.466;2024-03-02T08:23:02;2.97;;;1.27;;
63114;SDS011;49208;50.874;6.466;2024-03-02T08:25:28;3.85;;;1.38;;
63114;SDS011;49208;50.874;6.466;2024-03-02T08:27:53;3.95;;;1.70;;
63114;SDS011;49208;50.874;6.466;2024-03-02T08:30:19;3.38;;;1.33;;
63114;SDS011;49208;50.874;6.466;2024-03-02T08:32:44;3.70;;;1.15;;
63114;SDS011;49208;50.874;6.466;2024-03-02T08:37:38;2.35;;;1.25;;
63114;SDS011;49208;50.874;6.466;2024-03-02T08:40:07;3.58;;;1.27;;
63114;SDS011;49208;50.874;6.466;2024-03-02T08:42:33;3.78;;;0.90;;
63114;SDS011;49208;50.874;6.466;2024-03-02T08:44:58;2.20;;;1.00;;
63114;SDS011;49208;50.874;6.466;2024-03-02T08:47:26;2.10;;;0.98;;
63114;SDS011;49208;50.874;6.466;2024-03-02T08:49:51;4.57;;;1.25;;
63114;SDS011;49208;50.874;6.466;2024-03-02T08:52:17;2.22;;;0.90;;
63114;SDS011;49208;50.874;6.466;2024-03-02T08:54:42;2.15;;;0.90;;
63114;SDS011;49208;50.874;6.466;2024-03-02T08:57:07;4.25;;;1.00;;
63114;SDS011;49208;50.874;6.466;2024-03-02T08:59:33;3.92;;;1.63;;
63114;SDS011;49208;50.874;6.466;2024-03-02T09:01:58;2.47;;;0.90;;
63114;SDS011;49208;50.874;6.466;2024-03-02T09:04:24;3.50;;;1.02;;
63114;SDS011;49208;50.874;6.466;2024-03-02T09:06:50;2.25;;;1.27;;
63114;SDS011;49208;50.874;6.466;2024-03-02T09:09:15;2.33;;;1.10;;
63114;SDS011;49208;50.874;6.466;2024-03-02T09:11:40;3.95;;;0.90;;
63114;SDS011;49208;50.874;6.466;2024-03-02T09:14:06;2.65;;;0.75;;
63114;SDS011;49208;50.874;6.466;2024-03-02T09:16:31;3.85;;;0.88;;
63114;SDS011;49208;50.874;6.466;2024-03-02T09:18:57;3.90;;;0.70;;
63114;SDS011;49208;50.874;6.466;2024-03-02T09:21:23;3.08;;;0.82;;
63114;SDS011;49208;50.874;6.466;2024-03-02T09:23:50;2.33;;;0.80;;
63114;SDS011;49208;50.874;6.466;2024-03-02T09:26:16;3.63;;;0.82;;
63114;SDS011;49208;50.874;6.466;2024-03-02T09:28:44;2.25;;;0.60;;
63114;SDS011;49208;50.874;6.466;2024-03-02T09:31:10;1.27;;;0.35;;
63114;SDS011;49208;50.874;6.466;2024-03-02T09:33:36;1.77;;;0.73;;
63114;SDS011;49208;50.874;6.466;2024-03-02T09:36:02;1.42;;;0.60;;
63114;SDS011;49208;50.874;6.466;2024-03-02T09:38:27;2.95;;;0.70;;
63114;SDS011;49208;50.874;6.466;2024-03-02T09:40:53;1.75;;;0.55;;
63114;SDS011;49208;50.874;6.466;2024-03-02T09:43:18;1.85;;;0.68;;
63114;SDS011;49208;50.874;6.466;2024-03-02T09:45:43;2.92;;;0.80;;
63114;SDS011;49208;50.874;6.466;2024-03-02T09:48:10;3.40;;;0.95;;
63114;SDS011;49208;50.874;6.466;2024-03-02T09:50:35;3.72;;;0.90;;
63114;SDS011;49208;50.874;6.466;2024-03-02T09:53:00;2.30;;;0.50;;
63114;SDS011;49208;50.874;6.466;2024-03-02T09:55:27;2.42;;;0.80;;
63114;SDS011;49208;50.874;6.466;2024-03-02T09:57:53;3.40;;;0.70;;
63114;SDS011;49208;50.874;6.466;2024-03-02T10:00:18;3.55;;;0.98;;
63114;SDS011;49208;50.874;6.466;2024-03-02T10:02:44;2.22;;;0.80;;
63114;SDS011;49208;50.874;6.466;2024-03-02T10:05:09;3.35;;;0.90;;
63114;SDS011;49208;50.874;6.466;2024-03-02T10:07:35;4.88;;;0.68;;
63114;SDS011;49208;50.874;6.466;2024-03-02T10:10:12;1.60;;;0.55;;
63114;SDS011;49208;50.874;6.466;2024-03-02T10:12:40;1.98;;;0.60;;
63114;SDS011;49208;50.874;6.466;2024-03-02T10:15:06;1.75;;;0.90;;
63114;SDS011;49208;50.874;6.466;2024-03-02T10:17:32;3.00;;;0.88;;
63114;SDS011;49208;50.874;6.466;2024-03-02T10:19:58;1.02;;;0.47;;
63114;SDS011;49208;50.874;6.466;2024-03-02T10:22:23;2.78;;;0.70;;
63114;SDS011;49208;50.874;6.466;2024-03-02T10:24:49;4.28;;;0.80;;
63114;SDS011;49208;50.874;6.466;2024-03-02T10:27:17;2.35;;;0.80;;
63114;SDS011;49208;50.874;6.466;2024-03-02T10:29:47;2.08;;;0.73;;
63114;SDS011;49208;50.874;6.466;2024-03-02T10:32:13;3.83;;;1.10;;
63114;SDS011;49208;50.874;6.466;2024-03-02T10:34:42;1.30;;;0.40;;
63114;SDS011;49208;50.874;6.466;2024-03-02T10:37:10;2.15;;;0.80;;
63114;SDS011;49208;50.874;6.466;2024-03-02T10:39:36;3.55;;;0.85;;
63114;SDS011;49208;50.874;6.466;2024-03-02T10:42:03;3.63;;;1.00;;
63114;SDS011;49208;50.874;6.466;2024-03-02T10:44:29;1.98;;;0.65;;
63114;SDS011;49208;50.874;6.466;2024-03-02T10:46:55;2.78;;;0.80;;
63114;SDS011;49208;50.874;6.466;2024-03-02T10:49:22;2.08;;;0.75;;
63114;SDS011;49208;50.874;6.466;2024-03-02T10:51:49;1.55;;;0.60;;
63114;SDS011;49208;50.874;6.466;2024-03-02T10:54:14;1.95;;;0.70;;
63114;SDS011;49208;50.874;6.466;2024-03-02T10:56:40;2.47;;;1.00;;
63114;SDS011;49208;50.874;6.466;2024-03-02T11:01:58;1.92;;;0.70;;
63114;SDS011;49208;50.874;6.466;2024-03-02T11:04:28;3.90;;;0.60;;
63114;SDS011;49208;50.874;6.466;2024-03-02T11:06:56;1.58;;;0.65;;
63114;SDS011;49208;50.874;6.466;2024-03-02T11:09:25;2.40;;;0.70;;
63114;SDS011;49208;50.874;6.466;2024-03-02T11:11:59;1.40;;;0.52;;
63114;SDS011;49208;50.874;6.466;2024-03-02T11:14:26;4.65;;;0.85;;
63114;SDS011;49208;50.874;6.466;2024-03-02T11:16:55;2.03;;;0.70;;
63114;SDS011;49208;50.874;6.466;2024-03-02T11:19:20;2.50;;;0.88;;
63114;SDS011;49208;50.874;6.466;2024-03-02T11:21:47;3.60;;;0.70;;
63114;SDS011;49208;50.874;6.466;2024-03-02T11:26:52;1.73;;;0.50;;
63114;SDS011;49208;50.874;6.466;2024-03-02T11:32:02;2.28;;;0.60;;
63114;SDS011;49208;50.874;6.466;2024-03-02T11:34:29;2.17;;;0.70;;
63114;SDS011;49208;50.874;6.466;2024-03-02T11:36:56;2.22;;;0.60;;
63114;SDS011;49208;50.874;6.466;2024-03-02T11:39:21;2.25;;;0.60;;
63114;SDS011;49208;50.874;6.466;2024-03-02T11:41:47;3.33;;;0.88;;
63114;SDS011;49208;50.874;6.466;2024-03-02T11:44:13;2.13;;;0.68;;
63114;SDS011;49208;50.874;6.466;2024-03-02T11:46:40;8.75;;;1.10;;
63114;SDS011;49208;50.874;6.466;2024-03-02T11:49:05;2.22;;;0.77;;
63114;SDS011;49208;50.874;6.466;2024-03-02T11:51:32;3.47;;;0.68;;
63114;SDS011;49208;50.874;6.466;2024-03-02T11:53:59;2.28;;;0.70;;
63114;SDS011;49208;50.874;6.466;2024-03-02T11:56:27;2.58;;;1.05;;
63114;SDS011;49208;50.874;6.466;2024-03-02T11:58:55;3.35;;;0.77;;
63114;SDS011;49208;50.874;6.466;2024-03-02T12:01:22;2.45;;;0.75;;
63114;SDS011;49208;50.874;6.466;2024-03-02T12:03:48;3.58;;;0.98;;
63114;SDS011;49208;50.874;6.466;2024-03-02T12:06:14;5.15;;;1.05;;
63114;SDS011;49208;50.874;6.466;2024-03-02T12:08:40;1.35;;;0.70;;
63114;SDS011;49208;50.874;6.466;2024-03-02T12:11:05;3.97;;;1.10;;
63114;SDS011;49208;50.874;6.466;2024-03-02T12:13:31;3.75;;;0.85;;
63114;SDS011;49208;50.874;6.466;2024-03-02T12:15:58;3.85;;;0.80;;
63114;SDS011;49208;50.874;6.466;2024-03-02T12:18:23;3.85;;;1.20;;
63114;SDS011;49208;50.874;6.466;2024-03-02T12:20:49;2.47;;;1.20;;
63114;SDS011;49208;50.874;6.466;2024-03-02T12:23:21;2.45;;;0.95;;
63114;SDS011;49208;50.874;6.466;2024-03-02T12:25:47;3.70;;;1.02;;
63114;SDS011;49208;50.874;6.466;2024-03-02T12:28:12;1.77;;;0.90;;
63114;SDS011;49208;50.874;6.466;2024-03-02T12:30:38;3.10;;;1.00;;
63114;SDS011;49208;50.874;6.466;2024-03-02T12:33:03;2.15;;;0.90;;
63114;SDS011;49208;50.874;6.466;2024-03-02T12:35:30;2.47;;;0.80;;
63114;SDS011;49208;50.874;6.466;2024-03-02T12:37:55;2.20;;;1.08;;
63114;SDS011;49208;50.874;6.466;2024-03-02T12:40:21;2.15;;;0.98;;
63114;SDS011;49208;50.874;6.466;2024-03-02T12:42:47;3.63;;;1.02;;
63114;SDS011;49208;50.874;6.466;2024-03-02T12:45:14;3.65;;;1.10;;
63114;SDS011;49208;50.874;6.466;2024-03-02T12:47:40;3.67;;;1.17;;
63114;SDS011;49208;50.874;6.466;2024-03-02T12:50:07;2.20;;;1.10;;
63114;SDS011;49208;50.874;6.466;2024-03-02T12:52:34;4.28;;;3.05;;
63114;SDS011;49208;50.874;6.466;2024-03-02T12:54:59;2.42;;;0.70;;
63114;SDS011;49208;50.874;6.466;2024-03-02T12:57:28;2.30;;;0.80;;
63114;SDS011;49208;50.874;6.466;2024-03-02T13:00:03;4.35;;;0.90;;
63114;SDS011;49208;50.874;6.466;2024-03-02T13:02:40;2.13;;;1.08;;
63114;SDS011;49208;50.874;6.466;2024-03-02T13:05:06;2.88;;;1.10;;
63114;SDS011;49208;50.874;6.466;2024-03-02T13:07:39;2.42;;;1.20;;
63114;SDS011;49208;50.874;6.466;2024-03-02T13:10:06;1.58;;;0.82;;
63114;SDS011;49208;50.874;6.466;2024-03-02T13:12:33;2.40;;;0.82;;
63114;SDS011;49208;50.874;6.466;2024-03-02T13:15:01;2.05;;;0.98;;
63114;SDS011;49208;50.874;6.466;2024-03-02T13:17:28;1.83;;;0.90;;
63114;SDS011;49208;50.874;6.466;2024-03-02T13:19:57;3.40;;;1.17;;
63114;SDS011;49208;50.874;6.466;2024-03-02T13:22:24;2.38;;;1.10;;
63114;SDS011;49208;50.874;6.466;2024-03-02T13:24:50;3.83;;;0.93;;
63114;SDS011;49208;50.874;6.466;2024-03-02T13:27:16;2.40;;;0.97;;
63114;SDS011;49208;50.874;6.466;2024-03-02T13:29:45;4.18;;;1.23;;
63114;SDS011;49208;50.874;6.466;2024-03-02T13:32:11;3.10;;;1.10;;
63114;SDS011;49208;50.874;6.466;2024-03-02T13:34:37;2.15;;;1.15;;
63114;SDS011;49208;50.874;6.466;2024-03-02T13:37:02;2.40;;;1.10;;
63114;SDS011;49208;50.874;6.466;2024-03-02T13:39:30;3.70;;;1.10;;
63114;SDS011;49208;50.874;6.466;2024-03-02T13:41:57;2.95;;;1.10;;
63114;SDS011;49208;50.874;6.466;2024-03-02T13:44:29;3.80;;;1.08;;
63114;SDS011;49208;50.874;6.466;2024-03-02T13:46:54;3.85;;;1.23;;
63114;SDS011;49208;50.874;6.466;2024-03-02T13:49:20;3.47;;;1.17;;
63114;SDS011;49208;50.874;6.466;2024-03-02T13:51:45;2.78;;;1.15;;
63114;SDS011;49208;50.874;6.466;2024-03-02T13:54:10;2.15;;;1.00;;
63114;SDS011;49208;50.874;6.466;2024-03-02T13:56:36;3.60;;;0.82;;
63114;SDS011;49208;50.874;6.466;2024-03-02T13:59:04;1.95;;;0.90;;
63114;SDS011;49208;50.874;6.466;2024-03-02T14:01:30;3.53;;;1.00;;
63114;SDS011;49208;50.874;6.466;2024-03-02T14:03:56;2.63;;;0.82;;
63114;SDS011;49208;50.874;6.466;2024-03-02T14:06:21;2.28;;;0.98;;
63114;SDS011;49208;50.874;6.466;2024-03-02T14:08:46;2.90;;;1.05;;
63114;SDS011;49208;50.874;6.466;2024-03-02T14:11:14;2.63;;;0.90;;
63114;SDS011;49208;50.874;6.466;2024-03-02T14:13:43;4.00;;;0.88;;
63114;SDS011;49208;50.874;6.466;2024-03-02T14:16:12;2.53;;;1.23;;
63114;SDS011;49208;50.874;6.466;2024-03-02T14:18:37;2.17;;;0.90;;
63114;SDS011;49208;50.874;6.466;2024-03-02T14:21:03;1.77;;;0.90;;
63114;SDS011;49208;50.874;6.466;2024-03-02T14:23:28;1.52;;;0.60;;
63114;SDS011;49208;50.874;6.466;2024-03-02T14:25:54;2.20;;;0.93;;
63114;SDS011;49208;50.874;6.466;2024-03-02T14:28:20;2.63;;;0.88;;
63114;SDS011;49208;50.874;6.466;2024-03-02T14:30:45;2.72;;;1.02;;
63114;SDS011;49208;50.874;6.466;2024-03-02T14:33:11;3.05;;;0.95;;
63114;SDS011;49208;50.874;6.466;2024-03-02T14:35:36;2.10;;;1.00;;
63114;SDS011;49208;50.874;6.466;2024-03-02T14:38:02;1.75;;;0.98;;
63114;SDS011;49208;50.874;6.466;2024-03-02T14:40:27;1.83;;;0.90;;
63114;SDS011;49208;50.874;6.466;2024-03-02T14:42:54;2.38;;;1.02;;
63114;SDS011;49208;50.874;6.466;2024-03-02T14:45:19;2.50;;;1.00;;
63114;SDS011;49208;50.874;6.466;2024-03-02T14:47:45;5.47;;;1.90;;
63114;SDS011;49208;50.874;6.466;2024-03-02T14:50:10;3.05;;;1.42;;
63114;SDS011;49208;50.874;6.466;2024-03-02T14:52:36;2.65;;;1.33;;
63114;SDS011;49208;50.874;6.466;2024-03-02T14:55:02;5.18;;;1.60;;
63114;SDS011;49208;50.874;6.466;2024-03-02T14:57:32;4.75;;;1.45;;
63114;SDS011;49208;50.874;6.466;2024-03-02T14:59:57;2.83;;;1.50;;
63114;SDS011;49208;50.874;6.466;2024-03-02T15:02:23;4.05;;;1.60;;
63114;SDS011;49208;50.874;6.466;2024-03-02T15:04:48;4.25;;;1.80;;
63114;SDS011;49208;50.874;6.466;2024-03-02T15:07:14;3.28;;;1.70;;
63114;SDS011;49208;50.874;6.466;2024-03-02T15:09:39;4.18;;;1.52;;
63114;SDS011;49208;50.874;6.466;2024-03-02T15:12:05;3.90;;;1.70;;
63114;SDS011;49208;50.874;6.466;2024-03-02T15:14:34;2.90;;;1.40;;
63114;SDS011;49208;50.874;6.466;2024-03-02T15:16:59;3.50;;;1.58;;
63114;SDS011;49208;50.874;6.466;2024-03-02T15:19:25;4.32;;;1.80;;
63114;SDS011;49208;50.874;6.466;2024-03-02T15:21:50;3.38;;;1.70;;
63114;SDS011;49208;50.874;6.466;2024-03-02T15:24:16;2.70;;;1.50;;
63114;SDS011;49208;50.874;6.466;2024-03-02T15:26:41;3.83;;;1.88;;
63114;SDS011;49208;50.874;6.466;2024-03-02T15:29:07;3.58;;;1.80;;
63114;SDS011;49208;50.874;6.466;2024-03-02T15:31:32;4.00;;;2.22;;
63114;SDS011;49208;50.874;6.466;2024-03-02T15:33:58;4.25;;;1.75;;
63114;SDS011;49208;50.874;6.466;2024-03-02T15:36:24;5.13;;;2.03;;
63114;SDS011;49208;50.874;6.466;2024-03-02T15:38:49;2.83;;;1.48;;
63114;SDS011;49208;50.874;6.466;2024-03-02T15:41:14;3.92;;;1.80;;
63114;SDS011;49208;50.874;6.466;2024-03-02T15:43:40;3.78;;;1.83;;
63114;SDS011;49208;50.874;6.466;2024-03-02T15:46:07;4.95;;;1.67;;
63114;SDS011;49208;50.874;6.466;2024-03-02T15:48:33;3.53;;;1.70;;
63114;SDS011;49208;50.874;6.466;2024-03-02T15:50:58;2.92;;;1.45;;
63114;SDS011;49208;50.874;6.466;2024-03-02T15:53:24;3.42;;;1.63;;
63114;SDS011;49208;50.874;6.466;2024-03-02T15:55:49;3.13;;;1.27;;
63114;SDS011;49208;50.874;6.466;2024-03-02T15:58:15;5.05;;;1.77;;
63114;SDS011;49208;50.874;6.466;2024-03-02T16:00:40;4.00;;;1.30;;
63114;SDS011;49208;50.874;6.466;2024-03-02T16:03:06;4.22;;;1.73;;
63114;SDS011;49208;50.874;6.466;2024-03-02T16:05:31;4.80;;;1.75;;
63114;SDS011;49208;50.874;6.466;2024-03-02T16:07:57;4.05;;;1.63;;
63114;SDS011;49208;50.874;6.466;2024-03-02T16:10:22;2.67;;;1.52;;
63114;SDS011;49208;50.874;6.466;2024-03-02T16:12:49;3.47;;;1.90;;
63114;SDS011;49208;50.874;6.466;2024-03-02T16:15:14;4.60;;;1.98;;
63114;SDS011;49208;50.874;6.466;2024-03-02T16:17:40;4.13;;;1.80;;
63114;SDS011;49208;50.874;6.466;2024-03-02T16:20:06;3.83;;;2.05;;
63114;SDS011;49208;50.874;6.466;2024-03-02T16:22:32;6.75;;;2.40;;
63114;SDS011;49208;50.874;6.466;2024-03-02T16:24:58;6.63;;;2.72;;
63114;SDS011;49208;50.874;6.466;2024-03-02T16:27:23;5.75;;;2.90;;
63114;SDS011;49208;50.874;6.466;2024-03-02T16:29:49;5.25;;;3.20;;
63114;SDS011;49208;50.874;6.466;2024-03-02T16:32:15;4.53;;;1.95;;
63114;SDS011;49208;50.874;6.466;2024-03-02T16:34:40;4.90;;;2.25;;
63114;SDS011;49208;50.874;6.466;2024-03-02T16:37:06;4.35;;;1.80;;
63114;SDS011;49208;50.874;6.466;2024-03-02T16:39:31;3.90;;;1.85;;
63114;SDS011;49208;50.874;6.466;2024-03-02T16:41:56;7.70;;;4.53;;
63114;SDS011;49208;50.874;6.466;2024-03-02T16:44:22;4.47;;;1.70;;
63114;SDS011;49208;50.874;6.466;2024-03-02T16:46:48;4.07;;;1.63;;
63114;SDS011;49208;50.874;6.466;2024-03-02T16:49:14;4.00;;;1.73;;
63114;SDS011;49208;50.874;6.466;2024-03-02T16:51:42;3.90;;;1.83;;
63114;SDS011;49208;50.874;6.466;2024-03-02T16:54:08;5.28;;;1.70;;
63114;SDS011;49208;50.874;6.466;2024-03-02T16:56:40;3.30;;;1.55;;
63114;SDS011;49208;50.874;6.466;2024-03-02T16:59:06;4.13;;;1.98;;
63114;SDS011;49208;50.874;6.466;2024-03-02T17:01:32;4.85;;;2.10;;
63114;SDS011;49208;50.874;6.466;2024-03-02T17:03:57;4.78;;;1.80;;
63114;SDS011;49208;50.874;6.466;2024-03-02T17:06:23;4.13;;;1.90;;
63114;SDS011;49208;50.874;6.466;2024-03-02T17:08:48;3.33;;;1.73;;
63114;SDS011;49208;50.874;6.466;2024-03-02T17:11:13;4.40;;;2.00;;
63114;SDS011;49208;50.874;6.466;2024-03-02T17:13:39;3.97;;;1.80;;
63114;SDS011;49208;50.874;6.466;2024-03-02T17:16:04;5.45;;;1.70;;
63114;SDS011;49208;50.874;6.466;2024-03-02T17:18:30;5.25;;;2.30;;
63114;SDS011;49208;50.874;6.466;2024-03-02T17:20:55;4.68;;;2.15;;
63114;SDS011;49208;50.874;6.466;2024-03-02T17:23:20;5.63;;;2.28;;
63114;SDS011;49208;50.874;6.466;2024-03-02T17:25:46;5.88;;;2.85;;
63114;SDS011;49208;50.874;6.466;2024-03-02T17:28:21;9.07;;;3.20;;
63114;SDS011;49208;50.874;6.466;2024-03-02T17:30:47;5.95;;;2.67;;
63114;SDS011;49208;50.874;6.466;2024-03-02T17:33:13;5.68;;;2.78;;
63114;SDS011;49208;50.874;6.466;2024-03-02T17:35:38;6.20;;;3.35;;
63114;SDS011;49208;50.874;6.466;2024-03-02T17:38:03;5.65;;;2.85;;
63114;SDS011;49208;50.874;6.466;2024-03-02T17:40:29;6.95;;;3.70;;
63114;SDS011;49208;50.874;6.466;2024-03-02T17:42:54;5.78;;;3.22;;
63114;SDS011;49208;50.874;6.466;2024-03-02T17:45:19;6.70;;;3.70;;
63114;SDS011;49208;50.874;6.466;2024-03-02T17:47:45;7.07;;;3.42;;
63114;SDS011;49208;50.874;6.466;2024-03-02T17:50:10;6.22;;;3.80;;
63114;SDS011;49208;50.874;6.466;2024-03-02T17:52:35;5.95;;;3.17;;
63114;SDS011;49208;50.874;6.466;2024-03-02T17:55:01;6.22;;;3.38;;
63114;SDS011;49208;50.874;6.466;2024-03-02T17:57:26;7.05;;;3.83;;
63114;SDS011;49208;50.874;6.466;2024-03-02T17:59:53;7.13;;;3.47;;
63114;SDS011;49208;50.874;6.466;2024-03-02T18:02:18;6.82;;;3.58;;
63114;SDS011;49208;50.874;6.466;2024-03-02T18:04:44;6.57;;;3.92;;
63114;SDS011;49208;50.874;6.466;2024-03-02T18:07:09;5.93;;;3.80;;
63114;SDS011;49208;50.874;6.466;2024-03-02T18:09:34;8.10;;;4.90;;
63114;SDS011;49208;50.874;6.466;2024-03-02T18:12:00;7.93;;;3.92;;
63114;SDS011;49208;50.874;6.466;2024-03-02T18:14:26;6.85;;;4.30;;
63114;SDS011;49208;50.874;6.466;2024-03-02T18:16:51;8.10;;;4.85;;
63114;SDS011;49208;50.874;6.466;2024-03-02T18:19:17;7.55;;;4.50;;
63114;SDS011;49208;50.874;6.466;2024-03-02T18:21:42;9.85;;;4.78;;
63114;SDS011;49208;50.874;6.466;2024-03-02T18:24:07;8.52;;;5.30;;
63114;SDS011;49208;50.874;6.466;2024-03-02T18:26:33;7.10;;;4.35;;
63114;SDS011;49208;50.874;6.466;2024-03-02T18:28:59;7.90;;;4.63;;
63114;SDS011;49208;50.874;6.466;2024-03-02T18:31:25;7.68;;;4.53;;
63114;SDS011;49208;50.874;6.466;2024-03-02T18:33:51;7.60;;;4.35;;
63114;SDS011;49208;50.874;6.466;2024-03-02T18:36:16;8.43;;;5.00;;
63114;SDS011;49208;50.874;6.466;2024-03-02T18:38:41;8.48;;;4.97;;
63114;SDS011;49208;50.874;6.466;2024-03-02T18:41:07;8.75;;;4.38;;
63114;SDS011;49208;50.874;6.466;2024-03-02T18:43:32;7.63;;;4.15;;
63114;SDS011;49208;50.874;6.466;2024-03-02T18:45:57;6.53;;;4.25;;
63114;SDS011;49208;50.874;6.466;2024-03-02T18:48:24;7.97;;;4.57;;
63114;SDS011;49208;50.874;6.466;2024-03-02T18:50:50;8.80;;;5.00;;
63114;SDS011;49208;50.874;6.466;2024-03-02T18:53:15;7.60;;;4.47;;
63114;SDS011;49208;50.874;6.466;2024-03-02T18:55:40;8.55;;;5.28;;
63114;SDS011;49208;50.874;6.466;2024-03-02T18:58:06;9.85;;;5.55;;
63114;SDS011;49208;50.874;6.466;2024-03-02T19:00:31;7.47;;;4.88;;
63114;SDS011;49208;50.874;6.466;2024-03-02T19:02:56;8.93;;;5.15;;
63114;SDS011;49208;50.874;6.466;2024-03-02T19:05:22;8.68;;;4.95;;
63114;SDS011;49208;50.874;6.466;2024-03-02T19:07:47;6.63;;;4.07;;
63114;SDS011;49208;50.874;6.466;2024-03-02T19:10:12;7.22;;;4.40;;
63114;SDS011;49208;50.874;6.466;2024-03-02T19:12:38;7.65;;;4.22;;
63114;SDS011;49208;50.874;6.466;2024-03-02T19:15:04;7.65;;;4.43;;
63114;SDS011;49208;50.874;6.466;2024-03-02T19:17:29;7.18;;;4.45;;
63114;SDS011;49208;50.874;6.466;2024-03-02T19:19:55;8.45;;;4.10;;
63114;SDS011;49208;50.874;6.466;2024-03-02T19:22:20;8.60;;;4.05;;
63114;SDS011;49208;50.874;6.466;2024-03-02T19:24:48;8.07;;;4.10;;
63114;SDS011;49208;50.874;6.466;2024-03-02T19:27:13;6.82;;;4.13;;
63114;SDS011;49208;50.874;6.466;2024-03-02T19:29:39;7.60;;;3.78;;
63114;SDS011;49208;50.874;6.466;2024-03-02T19:32:04;7.85;;;4.80;;
63114;SDS011;49208;50.874;6.466;2024-03-02T19:34:30;6.15;;;3.65;;
63114;SDS011;49208;50.874;6.466;2024-03-02T19:36:55;5.95;;;3.08;;
63114;SDS011;49208;50.874;6.466;2024-03-02T19:39:22;6.40;;;3.55;;
63114;SDS011;49208;50.874;6.466;2024-03-02T19:41:51;6.60;;;3.50;;
63114;SDS011;49208;50.874;6.466;2024-03-02T19:44:19;6.97;;;3.63;;
63114;SDS011;49208;50.874;6.466;2024-03-02T19:46:45;6.43;;;2.80;;
63114;SDS011;49208;50.874;6.466;2024-03-02T19:49:10;6.32;;;3.38;;
63114;SDS011;49208;50.874;6.466;2024-03-02T19:51:35;4.88;;;3.20;;
63114;SDS011;49208;50.874;6.466;2024-03-02T19:54:01;5.45;;;2.70;;
63114;SDS011;49208;50.874;6.466;2024-03-02T19:56:29;6.10;;;2.90;;
63114;SDS011;49208;50.874;6.466;2024-03-02T19:58:54;5.07;;;2.78;;
63114;SDS011;49208;50.874;6.466;2024-03-02T20:01:19;4.90;;;2.55;;
63114;SDS011;49208;50.874;6.466;2024-03-02T20:03:45;5.55;;;2.55;;
63114;SDS011;49208;50.874;6.466;2024-03-02T20:06:10;6.75;;;2.30;;
63114;SDS011;49208;50.874;6.466;2024-03-02T20:08:36;6.00;;;2.50;;
63114;SDS011;49208;50.874;6.466;2024-03-02T20:11:02;4.40;;;2.28;;
63114;SDS011;49208;50.874;6.466;2024-03-02T20:13:28;4.45;;;2.50;;
63114;SDS011;49208;50.874;6.466;2024-03-02T20:15:53;6.82;;;2.85;;
63114;SDS011;49208;50.874;6.466;2024-03-02T20:18:19;4.63;;;2.42;;
63114;SDS011;49208;50.874;6.466;2024-03-02T20:20:45;5.22;;;3.00;;
63114;SDS011;49208;50.874;6.466;2024-03-02T20:23:10;5.68;;;3.00;;
63114;SDS011;49208;50.874;6.466;2024-03-02T20:25:36;7.85;;;3.55;;
63114;SDS011;49208;50.874;6.466;2024-03-02T20:28:02;6.82;;;3.50;;
63114;SDS011;49208;50.874;6.466;2024-03-02T20:30:28;7.72;;;3.47;;
63114;SDS011;49208;50.874;6.466;2024-03-02T20:32:54;4.75;;;2.67;;
63114;SDS011;49208;50.874;6.466;2024-03-02T20:35:19;5.38;;;3.10;;
63114;SDS011;49208;50.874;6.466;2024-03-02T20:37:45;4.60;;;2.53;;
63114;SDS011;49208;50.874;6.466;2024-03-02T20:40:11;5.55;;;2.85;;
63114;SDS011;49208;50.874;6.466;2024-03-02T20:42:39;6.50;;;2.60;;
63114;SDS011;49208;50.874;6.466;2024-03-02T20:45:05;4.72;;;2.70;;
63114;SDS011;49208;50.874;6.466;2024-03-02T20:47:31;4.15;;;2.05;;
63114;SDS011;49208;50.874;6.466;2024-03-02T20:49:56;4.72;;;2.05;;
63114;SDS011;49208;50.874;6.466;2024-03-02T20:52:22;5.40;;;2.92;;
63114;SDS011;49208;50.874;6.466;2024-03-02T20:54:47;5.20;;;2.85;;
63114;SDS011;49208;50.874;6.466;2024-03-02T20:57:13;5.43;;;2.42;;
63114;SDS011;49208;50.874;6.466;2024-03-02T20:59:39;6.97;;;2.72;;
63114;SDS011;49208;50.874;6.466;2024-03-02T21:02:04;6.10;;;2.92;;
63114;SDS011;49208;50.874;6.466;2024-03-02T21:04:29;5.75;;;3.03;;
63114;SDS011;49208;50.874;6.466;2024-03-02T21:06:55;5.57;;;3.17;;
63114;SDS011;49208;50.874;6.466;2024-03-02T21:09:20;6.30;;;3.08;;
63114;SDS011;49208;50.874;6.466;2024-03-02T21:11:45;5.13;;;2.95;;
63114;SDS011;49208;50.874;6.466;2024-03-02T21:14:13;6.03;;;3.28;;
63114;SDS011;49208;50.874;6.466;2024-03-02T21:16:38;6.05;;;3.08;;
63114;SDS011;49208;50.874;6.466;2024-03-02T21:19:05;5.40;;;3.00;;
63114;SDS011;49208;50.874;6.466;2024-03-02T21:21:31;5.65;;;3.35;;
63114;SDS011;49208;50.874;6.466;2024-03-02T21:23:57;6.63;;;3.13;;
63114;SDS011;49208;50.874;6.466;2024-03-02T21:26:22;6.90;;;3.17;;
63114;SDS011;49208;50.874;6.466;2024-03-02T21:28:48;8.65;;;3.80;;
63114;SDS011;49208;50.874;6.466;2024-03-02T21:31:16;5.88;;;3.30;;
63114;SDS011;49208;50.874;6.466;2024-03-02T21:33:42;5.60;;;3.40;;
63114;SDS011;49208;50.874;6.466;2024-03-02T21:36:07;7.45;;;3.72;;
63114;SDS011;49208;50.874;6.466;2024-03-02T21:38:33;6.55;;;3.90;;
63114;SDS011;49208;50.874;6.466;2024-03-02T21:40:58;8.02;;;4.05;;
63114;SDS011;49208;50.874;6.466;2024-03-02T21:43:24;7.15;;;3.33;;
63114;SDS011;49208;50.874;6.466;2024-03-02T21:45:51;6.85;;;3.70;;
63114;SDS011;49208;50.874;6.466;2024-03-02T21:48:16;6.43;;;3.58;;
63114;SDS011;49208;50.874;6.466;2024-03-02T21:50:42;5.85;;;3.40;;
63114;SDS011;49208;50.874;6.466;2024-03-02T21:53:08;7.50;;;3.78;;